Time;durP1;ratioP1;P1;durP2;ratioP2;P2;SDS_P1;SDS_P2;PMS_P1;PMS_P2;Temp;Humidity;BMP_temperature;BMP_pressure;BME280_temperature;BME280_humidity;BME280_pressure;Samples;Min_cycle;Max_cycle;Signal;HPM_P1;HPM_P2
2022/08/29 00:01:31;;;;;;;3.20;1.40;;;17.20;99.90;;;;;;5014594;28;20296;-79
2022/08/29 00:03:58;;;;;;;1.23;0.73;;;17.20;99.90;;;;;;5013422;28;20306;-79
2022/08/29 00:06:24;;;;;;;5.33;1.20;;;17.20;99.90;;;;;;5000188;28;20256;-79
2022/08/29 00:08:50;;;;;;;1.90;1.27;;;17.20;99.90;;;;;;4988813;28;20235;-80
2022/08/29 00:11:16;;;;;;;1.97;1.23;;;17.20;99.90;;;;;;4993883;28;20196;-81
2022/08/29 00:13:42;;;;;;;3.83;1.83;;;17.20;99.90;;;;;;5015088;28;20274;-79
2022/08/29 00:16:08;;;;;;;2.57;1.27;;;17.20;99.90;;;;;;5013061;28;20366;-79
2022/08/29 00:18:35;;;;;;;2.63;1.20;;;17.20;99.90;;;;;;5014130;28;20250;-79
2022/08/29 00:21:02;;;;;;;1.13;0.93;;;17.20;99.90;;;;;;5014252;28;20269;-79
2022/08/29 00:23:27;;;;;;;4.63;1.40;;;17.20;99.90;;;;;;5008655;28;20270;-79
2022/08/29 00:25:53;;;;;;;1.80;1.13;;;17.30;99.90;;;;;;5014741;28;20287;-79
2022/08/29 00:28:19;;;;;;;4.37;1.50;;;17.20;99.90;;;;;;5012861;28;20234;-80
2022/08/29 00:30:45;;;;;;;3.40;1.20;;;17.20;99.90;;;;;;5013096;28;20222;-81
2022/08/29 00:33:11;;;;;;;4.10;1.70;;;17.20;99.90;;;;;;5014523;28;20212;-80
2022/08/29 00:35:39;;;;;;;2.40;0.90;;;17.20;99.90;;;;;;5013788;28;20988;-79
2022/08/29 00:38:07;;;;;;;4.07;1.30;;;17.20;99.90;;;;;;5010891;28;20592;-81
2022/08/29 00:40:41;;;;;;;3.30;1.60;;;17.20;99.90;;;;;;5014072;28;20307;-79
2022/08/29 00:43:07;;;;;;;5.90;1.47;;;17.20;99.90;;;;;;5013878;28;20221;-79
2022/08/29 00:45:36;;;;;;;7.13;1.33;;;17.20;99.90;;;;;;5013522;28;20223;-81
2022/08/29 00:48:09;;;;;;;4.27;1.33;;;17.20;99.90;;;;;;5014006;28;20245;-80
2022/08/29 00:50:39;;;;;;;3.20;1.57;;;17.10;99.90;;;;;;5017802;28;20233;-80
2022/08/29 00:53:08;;;;;;;2.30;1.17;;;17.20;99.90;;;;;;4992780;28;20188;-79
2022/08/29 00:55:36;;;;;;;4.07;0.83;;;17.20;99.90;;;;;;4976802;28;20721;-80
2022/08/29 00:58:08;;;;;;;2.47;1.60;;;17.30;99.90;;;;;;5008751;28;20227;-80
2022/08/29 01:00:34;;;;;;;1.03;0.87;;;17.30;99.90;;;;;;5013442;28;20285;-80
2022/08/29 01:03:01;;;;;;;3.57;1.33;;;17.40;99.90;;;;;;5004708;28;20221;-80
2022/08/29 01:05:27;;;;;;;3.97;1.40;;;17.30;99.90;;;;;;5012248;28;20250;-81
2022/08/29 01:07:53;;;;;;;1.47;1.10;;;17.40;99.90;;;;;;5013953;28;20247;-80
2022/08/29 01:13:08;;;;;;;3.53;1.33;;;17.50;99.90;;;;;;5013420;28;20230;-80
2022/08/29 01:15:34;;;;;;;4.93;1.00;;;17.50;99.90;;;;;;5013142;28;20266;-80
2022/08/29 01:18:01;;;;;;;3.37;1.37;;;17.50;99.90;;;;;;5013338;28;20591;-80
2022/08/29 01:20:33;;;;;;;2.70;1.40;;;17.60;99.90;;;;;;5008052;28;20191;-81
2022/08/29 01:23:13;;;;;;;2.17;1.13;;;17.60;99.90;;;;;;5013942;28;20190;-80
2022/08/29 01:25:44;;;;;;;4.13;1.67;;;17.60;99.90;;;;;;5013271;28;20215;-80
2022/08/29 01:28:17;;;;;;;2.50;1.10;;;17.50;99.90;;;;;;5008549;28;20724;-80
2022/08/29 01:31:02;;;;;;;2.53;1.53;;;17.50;99.90;;;;;;5013017;28;20215;-82
2022/08/29 01:33:46;;;;;;;1.00;0.93;;;17.40;99.90;;;;;;5012936;28;20265;-80
2022/08/29 01:36:21;;;;;;;3.83;1.27;;;17.40;99.90;;;;;;5013385;28;20246;-82
2022/08/29 01:38:48;;;;;;;2.20;1.00;;;17.40;99.90;;;;;;5013344;28;20211;-80
2022/08/29 01:41:16;;;;;;;1.30;1.00;;;17.40;99.90;;;;;;5013192;28;20277;-80
2022/08/29 01:43:45;;;;;;;2.73;0.90;;;17.40;99.90;;;;;;5013455;28;20203;-80
2022/08/29 01:46:13;;;;;;;3.13;0.90;;;17.40;99.90;;;;;;5013141;28;20245;-81
2022/08/29 01:48:42;;;;;;;4.40;1.80;;;17.40;99.90;;;;;;5011621;28;20231;-80
2022/08/29 01:51:09;;;;;;;1.40;1.00;;;17.30;99.90;;;;;;4992586;28;20303;-80
2022/08/29 01:53:35;;;;;;;2.07;1.37;;;17.30;99.90;;;;;;4975240;28;20674;-80
2022/08/29 01:56:11;;;;;;;2.57;1.47;;;17.20;99.90;;;;;;5008553;28;20179;-80
2022/08/29 01:58:37;;;;;;;2.77;1.73;;;17.20;99.90;;;;;;5012833;28;20227;-80
2022/08/29 02:01:04;;;;;;;5.00;1.27;;;17.20;99.90;;;;;;5012776;28;20219;-80
2022/08/29 02:03:29;;;;;;;1.13;0.80;;;17.30;99.90;;;;;;4994798;28;20223;-80
2022/08/29 02:05:58;;;;;;;4.33;1.33;;;17.20;99.90;;;;;;5011611;28;20309;-80
2022/08/29 02:08:24;;;;;;;3.67;1.60;;;17.30;99.90;;;;;;5012081;28;20274;-81
2022/08/29 02:10:50;;;;;;;2.97;1.60;;;17.20;99.90;;;;;;5007563;28;20226;-80
2022/08/29 02:13:15;;;;;;;2.53;1.47;;;17.30;99.90;;;;;;5012384;28;20219;-80
2022/08/29 02:15:41;;;;;;;4.20;1.37;;;17.30;99.90;;;;;;4999071;28;20712;-79
2022/08/29 02:18:07;;;;;;;4.07;1.57;;;17.30;99.90;;;;;;5012125;28;20230;-79
2022/08/29 02:20:32;;;;;;;1.40;1.20;;;17.30;99.90;;;;;;4981119;28;20195;-79
2022/08/29 02:22:58;;;;;;;7.10;1.70;;;17.30;99.90;;;;;;4997009;28;20188;-79
2022/08/29 02:25:42;;;;;;;2.80;1.50;;;17.30;99.90;;;;;;5009850;28;20215;-84
2022/08/29 02:28:10;;;;;;;2.97;1.20;;;17.20;99.90;;;;;;5011409;28;20261;-80
2022/08/29 02:30:38;;;;;;;5.33;1.30;;;17.30;99.90;;;;;;5010976;28;20242;-81
2022/08/29 02:33:05;;;;;;;0.90;0.80;;;17.20;99.90;;;;;;5012212;28;20215;-80
2022/08/29 02:35:31;;;;;;;0.70;0.70;;;17.20;99.90;;;;;;5011711;28;20191;-80
2022/08/29 02:37:56;;;;;;;1.43;1.20;;;17.20;99.90;;;;;;5018447;28;20771;-79
2022/08/29 02:40:22;;;;;;;3.83;0.97;;;17.20;99.90;;;;;;5011779;28;20313;-80
2022/08/29 02:42:48;;;;;;;2.23;1.00;;;17.20;99.90;;;;;;5012016;28;20223;-79
2022/08/29 02:45:14;;;;;;;5.10;1.67;;;17.20;99.90;;;;;;5010936;28;20219;-79
2022/08/29 02:47:40;;;;;;;1.33;0.93;;;17.20;99.90;;;;;;5005783;28;20774;-79
2022/08/29 02:50:08;;;;;;;2.67;1.67;;;17.20;99.90;;;;;;4994771;28;20195;-80
2022/08/29 02:52:34;;;;;;;0.90;0.80;;;17.10;99.90;;;;;;5011013;28;20215;-79
2022/08/29 02:55:00;;;;;;;2.57;1.40;;;17.10;99.90;;;;;;5011441;28;20215;-79
2022/08/29 02:57:26;;;;;;;3.37;1.03;;;17.10;99.90;;;;;;5011725;28;20234;-82
2022/08/29 02:59:52;;;;;;;5.10;1.10;;;17.00;99.90;;;;;;5012040;28;20704;-79
2022/08/29 03:02:17;;;;;;;2.40;0.80;;;17.10;99.90;;;;;;5010780;28;20188;-79
2022/08/29 03:04:43;;;;;;;2.23;0.97;;;17.10;99.90;;;;;;5012207;28;20203;-79
2022/08/29 03:07:09;;;;;;;4.73;1.20;;;17.10;99.90;;;;;;4994676;28;20242;-79
2022/08/29 03:09:34;;;;;;;2.03;0.90;;;17.10;99.90;;;;;;4986478;28;20263;-79
2022/08/29 03:12:00;;;;;;;0.93;0.70;;;17.10;99.90;;;;;;4973678;28;20279;-79
2022/08/29 03:14:26;;;;;;;1.83;1.07;;;17.10;99.90;;;;;;4991065;28;20567;-82
2022/08/29 03:16:52;;;;;;;2.27;0.70;;;17.00;99.90;;;;;;4975065;28;20254;-81
2022/08/29 03:19:17;;;;;;;1.70;0.90;;;17.00;99.90;;;;;;4989090;28;20231;-80
2022/08/29 03:21:44;;;;;;;0.63;0.60;;;17.00;99.90;;;;;;5011973;28;20314;-79
2022/08/29 03:24:10;;;;;;;0.47;0.47;;;16.90;99.90;;;;;;5018895;28;20233;-81
2022/08/29 03:26:36;;;;;;;3.43;1.13;;;17.00;99.90;;;;;;4993836;28;20211;-79
2022/08/29 03:29:03;;;;;;;0.77;0.77;;;16.90;99.90;;;;;;5012050;28;20222;-79
2022/08/29 03:31:28;;;;;;;5.37;1.00;;;17.00;99.90;;;;;;5011517;28;20294;-80
2022/08/29 03:33:55;;;;;;;3.93;0.97;;;17.00;99.90;;;;;;5011568;28;20627;-79
2022/08/29 03:36:25;;;;;;;1.20;0.70;;;17.00;99.90;;;;;;5018918;28;20225;-80
2022/08/29 03:38:51;;;;;;;3.63;0.77;;;17.00;99.90;;;;;;5012230;28;20246;-80
2022/08/29 03:41:22;;;;;;;1.77;1.67;;;17.10;99.90;;;;;;5014891;28;20540;-79
2022/08/29 03:43:48;;;;;;;2.37;0.93;;;17.00;99.90;;;;;;5000257;28;20537;-80
2022/08/29 03:46:14;;;;;;;1.00;0.90;;;17.00;99.90;;;;;;5015161;28;20692;-80
2022/08/29 03:48:39;;;;;;;0.80;0.57;;;17.10;99.90;;;;;;5014832;28;20307;-79
2022/08/29 03:51:06;;;;;;;1.10;0.87;;;17.10;99.90;;;;;;5020972;28;20687;-80
2022/08/29 03:53:32;;;;;;;1.40;1.30;;;17.10;99.90;;;;;;5007642;28;20188;-80
2022/08/29 03:55:58;;;;;;;3.03;1.00;;;17.10;99.90;;;;;;5015324;28;20206;-80
2022/08/29 03:58:24;;;;;;;1.07;0.93;;;17.00;99.90;;;;;;5015089;28;20227;-79
2022/08/29 04:00:50;;;;;;;0.70;0.70;;;17.00;99.90;;;;;;5014286;28;20242;-79
2022/08/29 04:03:15;;;;;;;2.33;0.90;;;17.00;99.90;;;;;;5010648;28;20223;-79
2022/08/29 04:05:41;;;;;;;1.10;0.90;;;17.00;99.90;;;;;;5013170;28;20215;-79
2022/08/29 04:08:07;;;;;;;1.17;0.97;;;17.00;99.90;;;;;;5014458;28;20239;-79
2022/08/29 04:10:36;;;;;;;1.43;0.77;;;17.00;99.90;;;;;;5013390;28;20223;-82
2022/08/29 04:13:03;;;;;;;3.97;1.10;;;17.00;99.90;;;;;;5014278;28;20226;-79
2022/08/29 04:15:31;;;;;;;1.17;0.70;;;17.00;99.90;;;;;;5013936;28;20673;-80
2022/08/29 04:17:59;;;;;;;3.00;0.77;;;17.00;99.90;;;;;;5012416;28;20306;-80
2022/08/29 04:20:28;;;;;;;15.23;1.60;;;17.00;99.90;;;;;;5012806;28;20209;-80
2022/08/29 04:22:56;;;;;;;3.03;1.20;;;16.90;99.90;;;;;;5014365;28;20179;-80
2022/08/29 04:25:24;;;;;;;5.60;0.80;;;17.00;99.90;;;;;;5021944;28;20216;-81
2022/08/29 04:27:50;;;;;;;1.17;0.90;;;16.90;99.90;;;;;;5001591;28;20223;-80
2022/08/29 04:30:19;;;;;;;1.47;0.90;;;16.90;99.90;;;;;;5012403;28;20619;-80
2022/08/29 04:32:45;;;;;;;6.00;1.23;;;16.90;99.90;;;;;;4993215;28;20212;-80
2022/08/29 04:35:11;;;;;;;2.70;1.10;;;16.80;99.90;;;;;;5009337;28;20532;-79
2022/08/29 04:37:38;;;;;;;1.77;1.53;;;16.90;99.90;;;;;;5014024;28;20223;-79
2022/08/29 04:40:05;;;;;;;1.10;1.00;;;16.90;99.90;;;;;;5005950;28;20222;-79
2022/08/29 04:42:33;;;;;;;3.50;1.17;;;16.90;99.90;;;;;;5013964;28;20231;-80
2022/08/29 04:44:59;;;;;;;4.40;1.20;;;16.90;99.90;;;;;;5012549;28;20211;-80
2022/08/29 04:47:25;;;;;;;2.10;0.87;;;16.90;99.90;;;;;;5013422;28;20641;-80
2022/08/29 04:49:55;;;;;;;2.97;1.00;;;16.90;99.90;;;;;;5015993;28;20246;-79
2022/08/29 04:52:22;;;;;;;4.30;1.20;;;16.90;99.90;;;;;;5000738;28;20727;-79
2022/08/29 04:54:48;;;;;;;7.50;1.37;;;16.90;99.90;;;;;;4984771;28;20298;-80
2022/08/29 04:57:15;;;;;;;2.73;1.63;;;16.90;99.90;;;;;;5000916;28;20226;-79
2022/08/29 04:59:40;;;;;;;2.00;0.90;;;16.90;99.90;;;;;;5013555;28;20222;-79
2022/08/29 05:02:06;;;;;;;7.57;1.43;;;16.90;99.90;;;;;;5012898;28;20664;-81
2022/08/29 05:04:32;;;;;;;6.20;1.07;;;16.90;99.90;;;;;;5006179;28;20778;-79
2022/08/29 05:06:57;;;;;;;17.83;1.33;;;16.90;99.90;;;;;;5013032;28;20219;-79
2022/08/29 05:09:23;;;;;;;2.30;1.23;;;16.90;99.90;;;;;;5004156;28;20596;-79
2022/08/29 05:11:49;;;;;;;3.70;1.20;;;16.90;99.90;;;;;;5012151;28;20318;-80
2022/08/29 05:14:15;;;;;;;2.00;1.37;;;16.80;99.90;;;;;;4999563;28;20661;-79
2022/08/29 05:16:41;;;;;;;1.50;1.20;;;16.80;99.90;;;;;;4996054;28;20195;-79
2022/08/29 05:19:07;;;;;;;2.30;0.70;;;16.80;99.90;;;;;;5003932;28;20265;-79
2022/08/29 05:21:38;;;;;;;1.90;1.20;;;16.80;99.90;;;;;;5013304;28;20230;-79
2022/08/29 05:24:08;;;;;;;2.40;1.03;;;16.80;99.90;;;;;;4998961;28;20219;-79
2022/08/29 05:26:37;;;;;;;1.43;0.77;;;16.90;99.90;;;;;;5011611;28;20233;-79
2022/08/29 05:29:07;;;;;;;1.07;0.90;;;16.90;99.90;;;;;;5013389;28;20290;-79
2022/08/29 05:31:32;;;;;;;5.00;0.80;;;16.90;99.90;;;;;;5012819;28;20211;-81
2022/08/29 05:33:59;;;;;;;2.93;1.03;;;17.00;99.90;;;;;;5012734;28;20326;-79
2022/08/29 05:36:24;;;;;;;1.13;1.00;;;17.00;99.90;;;;;;4991027;28;20306;-79
2022/08/29 05:38:50;;;;;;;4.23;1.63;;;17.10;99.90;;;;;;4987983;28;20369;-79
2022/08/29 05:41:17;;;;;;;1.30;0.93;;;17.10;99.90;;;;;;4969060;28;20570;-79
2022/08/29 05:43:43;;;;;;;2.60;1.13;;;17.10;99.90;;;;;;4998239;28;20191;-79
2022/08/29 05:46:10;;;;;;;4.17;1.77;;;17.20;99.90;;;;;;5011463;28;20219;-79
2022/08/29 05:48:39;;;;;;;1.60;1.20;;;17.40;99.90;;;;;;4984129;28;20614;-79
2022/08/29 05:51:05;;;;;;;3.07;1.47;;;17.40;99.90;;;;;;5002265;28;20219;-80
2022/08/29 05:53:30;;;;;;;2.13;0.90;;;17.50;99.90;;;;;;5011660;28;20194;-81
2022/08/29 05:55:56;;;;;;;0.97;0.77;;;17.50;99.90;;;;;;5012721;28;20198;-80
2022/08/29 05:58:22;;;;;;;1.40;1.10;;;17.60;99.90;;;;;;5011272;28;20257;-80
2022/08/29 06:00:48;;;;;;;4.43;0.87;;;17.70;99.90;;;;;;4994360;28;20590;-79
2022/08/29 06:03:14;;;;;;;4.40;1.27;;;17.70;99.90;;;;;;5008319;28;20220;-78
2022/08/29 06:05:40;;;;;;;2.50;1.30;;;17.70;99.90;;;;;;5011806;28;20218;-79
2022/08/29 06:08:06;;;;;;;2.07;0.77;;;17.80;99.90;;;;;;5011168;28;20313;-79
2022/08/29 06:10:33;;;;;;;1.60;1.23;;;17.80;99.90;;;;;;4992853;28;20303;-79
2022/08/29 06:12:59;;;;;;;1.70;1.20;;;17.80;99.90;;;;;;4963016;28;20232;-79
2022/08/29 06:15:27;;;;;;;3.13;1.50;;;17.80;99.90;;;;;;4989024;28;20212;-79
2022/08/29 06:17:53;;;;;;;1.20;0.90;;;17.90;99.90;;;;;;4982753;28;20674;-78
2022/08/29 06:20:20;;;;;;;2.23;1.17;;;17.90;99.90;;;;;;4992169;28;20198;-79
2022/08/29 06:22:45;;;;;;;1.97;1.13;;;17.90;99.90;;;;;;4992386;28;20605;-79
2022/08/29 06:25:11;;;;;;;1.23;0.97;;;18.00;99.90;;;;;;4992350;28;20252;-79
2022/08/29 06:27:37;;;;;;;1.43;1.00;;;18.00;99.90;;;;;;4983422;28;20274;-81
2022/08/29 06:30:04;;;;;;;4.40;1.10;;;18.00;99.90;;;;;;4981391;28;20232;-81
2022/08/29 06:32:30;;;;;;;2.67;1.10;;;18.10;99.90;;;;;;4988473;28;20804;-82
2022/08/29 06:34:56;;;;;;;4.30;1.00;;;18.10;99.90;;;;;;4982998;28;20282;-80
2022/08/29 06:37:21;;;;;;;0.90;0.70;;;18.10;99.90;;;;;;4983013;28;20299;-80
2022/08/29 06:39:47;;;;;;;1.23;0.90;;;18.20;99.90;;;;;;5001399;28;20227;-81
2022/08/29 06:42:13;;;;;;;1.80;1.20;;;18.20;99.90;;;;;;4999737;28;20242;-80
2022/08/29 06:44:38;;;;;;;3.10;1.00;;;18.30;99.90;;;;;;5002385;28;20231;-81
2022/08/29 06:47:04;;;;;;;3.53;1.17;;;18.40;99.90;;;;;;5010736;28;20658;-80
2022/08/29 06:49:32;;;;;;;1.40;0.90;;;18.50;99.90;;;;;;5011453;28;20223;-79
2022/08/29 06:51:58;;;;;;;3.47;1.50;;;18.50;99.90;;;;;;5009717;28;20219;-80
2022/08/29 06:54:26;;;;;;;2.37;0.97;;;18.50;99.90;;;;;;5000844;28;20226;-80
2022/08/29 06:56:52;;;;;;;2.97;1.30;;;18.60;99.90;;;;;;5009524;28;20258;-81
2022/08/29 06:59:18;;;;;;;6.67;1.23;;;18.60;99.90;;;;;;5008949;28;20245;-80
2022/08/29 07:01:46;;;;;;;2.30;0.80;;;18.70;99.90;;;;;;5001389;28;20191;-80
2022/08/29 07:04:12;;;;;;;1.30;1.17;;;18.90;99.90;;;;;;4984096;28;20227;-80
2022/08/29 07:06:39;;;;;;;3.50;0.90;;;18.80;99.90;;;;;;4986900;28;20223;-79
2022/08/29 07:09:05;;;;;;;4.57;1.33;;;18.90;99.90;;;;;;4991643;28;20293;-78
2022/08/29 07:11:32;;;;;;;2.37;1.17;;;18.90;99.90;;;;;;4987045;28;20192;-79
2022/08/29 07:14:00;;;;;;;3.40;1.30;;;18.90;99.90;;;;;;4993783;28;20236;-79
2022/08/29 07:16:27;;;;;;;5.47;1.40;;;19.20;99.90;;;;;;4995966;28;20274;-79
2022/08/29 07:18:53;;;;;;;1.77;1.13;;;19.30;99.90;;;;;;5008735;28;20231;-79
2022/08/29 07:21:22;;;;;;;2.40;1.20;;;19.60;99.90;;;;;;5015458;28;20567;-79
2022/08/29 07:23:49;;;;;;;2.03;1.37;;;20.00;99.90;;;;;;5015404;28;20215;-79
2022/08/29 07:26:16;;;;;;;10.23;1.87;;;20.30;99.90;;;;;;5013994;28;20187;-79
2022/08/29 07:28:42;;;;;;;3.77;1.80;;;20.50;99.90;;;;;;5013124;28;20289;-81
2022/08/29 07:31:08;;;;;;;2.27;1.10;;;21.00;99.90;;;;;;5015079;28;20282;-81
2022/08/29 07:33:34;;;;;;;1.00;0.90;;;21.00;99.90;;;;;;5014733;28;20223;-81
2022/08/29 07:36:02;;;;;;;1.93;1.10;;;20.60;99.90;;;;;;5014612;28;20222;-80
2022/08/29 07:38:29;;;;;;;3.73;1.20;;;20.10;99.90;;;;;;5013961;28;20202;-80
2022/08/29 07:40:59;;;;;;;5.87;1.30;;;20.20;99.90;;;;;;5015591;28;20274;-81
2022/08/29 07:43:25;;;;;;;2.17;1.33;;;20.40;99.90;;;;;;4996383;28;20678;-80
2022/08/29 07:45:51;;;;;;;3.67;1.00;;;20.90;99.90;;;;;;4986127;28;20234;-80
2022/08/29 07:48:17;;;;;;;1.57;1.40;;;21.20;99.90;;;;;;4975285;28;20283;-82
2022/08/29 07:50:42;;;;;;;4.40;1.60;;;21.90;99.90;;;;;;4994593;28;20220;-81
2022/08/29 07:53:08;;;;;;;4.30;1.13;;;23.50;99.90;;;;;;4970826;28;20188;-80
2022/08/29 07:55:35;;;;;;;2.05;1.13;;;24.60;99.90;;;;;;4993832;28;20270;-80
2022/08/29 07:58:03;;;;;;;3.10;1.23;;;24.70;99.90;;;;;;5009434;28;20229;-81
2022/08/29 08:00:29;;;;;;;3.28;1.30;;;23.90;99.90;;;;;;5014257;28;20231;-80
2022/08/29 08:02:55;;;;;;;2.42;1.10;;;23.40;99.90;;;;;;5013071;28;20223;-80
2022/08/29 08:05:21;;;;;;;2.72;0.98;;;22.40;99.90;;;;;;5014879;28;20195;-81
2022/08/29 08:07:48;;;;;;;3.13;1.20;;;21.80;99.90;;;;;;5011006;28;20346;-81
2022/08/29 08:10:16;;;;;;;1.67;1.25;;;21.70;99.90;;;;;;5014136;28;20235;-80
2022/08/29 08:12:43;;;;;;;2.15;1.10;;;21.90;99.90;;;;;;5010499;28;20215;-80
2022/08/29 08:15:09;;;;;;;3.92;1.40;;;22.10;99.90;;;;;;5017726;28;20219;-80
2022/08/29 08:17:35;;;;;;;3.92;1.13;;;22.00;99.90;;;;;;5012869;28;20696;-82
2022/08/29 08:20:03;;;;;;;7.05;1.65;;;21.40;99.90;;;;;;5006922;28;20233;-80
2022/08/29 08:22:29;;;;;;;10.57;2.28;;;21.10;99.90;;;;;;5006746;28;20207;-80
2022/08/29 08:24:55;;;;;;;6.18;1.45;;;21.20;99.90;;;;;;4980725;28;20223;-81
2022/08/29 08:27:20;;;;;;;1.48;1.05;;;21.20;99.90;;;;;;4991652;28;20232;-80
2022/08/29 08:29:46;;;;;;;5.53;1.42;;;21.20;99.90;;;;;;4981181;28;20598;-81
2022/08/29 08:32:12;;;;;;;4.50;1.67;;;20.80;99.90;;;;;;4974211;28;20236;-82
2022/08/29 08:34:37;;;;;;;6.13;1.83;;;20.70;99.90;;;;;;4985652;28;20219;-81
2022/08/29 08:37:07;;;;;;;2.65;1.17;;;20.70;99.90;;;;;;4985524;28;20725;-81
2022/08/29 08:39:34;;;;;;;8.20;1.88;;;20.70;99.90;;;;;;4992515;28;20246;-80
2022/08/29 08:42:19;;;;;;;6.30;1.50;;;20.90;99.90;;;;;;4993434;28;20232;-78
2022/08/29 08:45:05;;;;;;;5.00;1.20;;;21.10;99.90;;;;;;4998453;28;20215;-80
2022/08/29 08:47:38;;;;;;;2.70;1.30;;;20.60;99.90;;;;;;5012739;28;20180;-79
2022/08/29 08:50:12;;;;;;;3.33;1.27;;;20.40;99.90;;;;;;5015126;28;20203;-81
2022/08/29 08:52:57;;;;;;;3.43;1.10;;;20.80;99.90;;;;;;5013834;28;20224;-80
2022/08/29 08:55:27;;;;;;;3.30;1.43;;;21.20;99.90;;;;;;5013555;28;20215;-80
2022/08/29 08:58:10;;;;;;;4.10;1.60;;;22.60;99.90;;;;;;5011799;28;20239;-81
2022/08/29 09:00:42;;;;;;;1.58;1.30;;;23.60;99.90;;;;;;5008054;28;20211;-80
2022/08/29 09:03:28;;;;;;;6.77;1.43;;;23.00;99.90;;;;;;5011731;28;20215;-79
2022/08/29 09:06:06;;;;;;;2.78;1.35;;;22.30;99.90;;;;;;5010192;28;20714;-81
2022/08/29 09:09:00;;;;;;;3.40;1.93;;;21.80;99.90;;;;;;5001017;28;20239;-80
2022/08/29 09:11:54;;;;;;;4.47;1.30;;;21.60;99.90;;;;;;4991867;28;20204;-81
2022/08/29 09:14:37;;;;;;;4.00;2.05;;;21.60;99.90;;;;;;4992171;28;20542;-81
2022/08/29 09:17:06;;;;;;;4.33;1.40;;;21.90;99.90;;;;;;5001399;28;20218;-80
2022/08/29 09:19:31;;;;;;;4.17;1.10;;;21.80;99.90;;;;;;4990818;28;20710;-79
2022/08/29 09:22:11;;;;;;;5.17;1.70;;;22.00;99.90;;;;;;4994438;28;20250;-80
2022/08/29 09:24:47;;;;;;;2.93;1.37;;;21.60;99.90;;;;;;5007183;28;20223;-79
2022/08/29 09:27:22;;;;;;;3.07;1.70;;;21.50;99.90;;;;;;4999336;28;20234;-79
2022/08/29 09:30:07;;;;;;;6.73;2.30;;;21.50;99.90;;;;;;5001743;28;20234;-79
2022/08/29 09:32:34;;;;;;;4.47;1.70;;;21.40;99.90;;;;;;5006156;28;20228;-79
2022/08/29 09:35:16;;;;;;;2.70;1.90;;;21.30;99.90;;;;;;5006878;28;20190;-79
2022/08/29 09:37:41;;;;;;;3.03;1.63;;;21.00;99.90;;;;;;4997424;28;20649;-81
2022/08/29 09:40:11;;;;;;;4.90;1.90;;;20.60;99.90;;;;;;5003956;28;20234;-80
2022/08/29 09:42:42;;;;;;;6.90;1.97;;;20.50;99.90;;;;;;5012451;28;20301;-80
2022/08/29 09:45:14;;;;;;;3.37;1.77;;;20.70;99.90;;;;;;5008189;28;20219;-80
2022/08/29 09:47:40;;;;;;;6.67;1.87;;;20.70;99.90;;;;;;5012522;28;20215;-80
2022/08/29 09:50:16;;;;;;;5.80;1.67;;;20.70;99.90;;;;;;4998398;28;20203;-80
2022/08/29 09:52:57;;;;;;;9.07;1.83;;;20.70;99.90;;;;;;4986638;28;20707;-81
2022/08/29 09:55:41;;;;;;;3.60;1.27;;;20.80;99.90;;;;;;4992726;28;20584;-79
2022/08/29 09:58:16;;;;;;;8.47;2.10;;;20.70;99.90;;;;;;4992299;28;20212;-80
2022/08/29 10:01:10;;;;;;;2.07;1.73;;;20.70;99.90;;;;;;4992692;28;20220;-79
2022/08/29 10:03:42;;;;;;;5.93;1.70;;;20.60;99.90;;;;;;4983953;28;20220;-79
2022/08/29 10:06:15;;;;;;;8.23;1.87;;;20.20;99.90;;;;;;4995887;28;20222;-79
2022/08/29 10:08:53;;;;;;;3.00;1.97;;;20.00;99.90;;;;;;5008017;28;20226;-79
2022/08/29 10:11:29;;;;;;;2.57;1.87;;;19.90;99.90;;;;;;5013736;28;20213;-81
2022/08/29 10:13:56;;;;;;;6.53;2.07;;;19.90;99.90;;;;;;4989634;28;20650;-79
2022/08/29 10:16:50;;;;;;;3.53;1.47;;;19.80;99.90;;;;;;4981863;28;20298;-79
2022/08/29 10:19:25;;;;;;;13.20;2.40;;;19.70;99.90;;;;;;5007768;28;20226;-79
2022/08/29 10:22:01;;;;;;;6.83;2.17;;;19.70;99.90;;;;;;5016368;28;20211;-82
2022/08/29 10:24:45;;;;;;;3.07;2.00;;;19.50;99.90;;;;;;5008138;28;20249;-81
2022/08/29 10:27:38;;;;;;;3.00;1.70;;;19.50;99.90;;;;;;5011396;28;20234;-79
2022/08/29 10:30:11;;;;;;;2.97;1.40;;;19.90;99.90;;;;;;5006428;28;20261;-79
2022/08/29 10:32:45;;;;;;;7.67;2.33;;;20.10;99.90;;;;;;5001324;28;20223;-83
2022/08/29 10:35:22;;;;;;;7.53;1.50;;;20.20;99.90;;;;;;5006391;28;20270;-80
2022/08/29 10:37:50;;;;;;;7.10;2.10;;;20.30;99.90;;;;;;5009833;28;20206;-80
2022/08/29 10:40:34;;;;;;;10.53;2.50;;;20.30;99.90;;;;;;4997995;28;20743;-81
2022/08/29 10:43:34;;;;;;;7.63;2.10;;;20.30;99.90;;;;;;4985028;28;20212;-80
2022/08/29 10:46:17;;;;;;;4.73;2.03;;;20.20;99.90;;;;;;4984819;28;20271;-79
2022/08/29 10:49:00;;;;;;;8.10;2.07;;;20.20;99.90;;;;;;5000436;28;20727;-79
2022/08/29 10:51:45;;;;;;;3.60;1.87;;;20.20;99.90;;;;;;5007884;28;20206;-80
2022/08/29 10:54:23;;;;;;;6.87;1.80;;;20.20;99.90;;;;;;5012865;28;20230;-80
2022/08/29 10:56:50;;;;;;;9.03;1.93;;;20.00;99.90;;;;;;5016075;28;20227;-82
2022/08/29 10:59:45;;;;;;;6.47;2.50;;;19.90;99.90;;;;;;5029759;28;20252;-80
2022/08/29 11:02:29;;;;;;;2.10;1.80;;;19.80;99.90;;;;;;5012373;28;20179;-82
2022/08/29 11:05:00;;;;;;;3.80;1.70;;;19.50;99.90;;;;;;5008295;28;20265;-82
2022/08/29 11:07:41;;;;;;;3.27;2.40;;;19.40;99.90;;;;;;5015655;28;20234;-79
2022/08/29 11:10:12;;;;;;;2.40;1.70;;;19.30;99.90;;;;;;5000080;28;20244;-81
2022/08/29 11:12:46;;;;;;;2.07;1.50;;;19.40;99.90;;;;;;4998473;28;20208;-80
2022/08/29 11:15:46;;;;;;;4.80;1.90;;;19.30;99.90;;;;;;5008547;28;20233;-80
2022/08/29 11:18:25;;;;;;;2.67;1.90;;;19.30;99.90;;;;;;5009917;28;20227;-80
2022/08/29 11:20:56;;;;;;;5.60;2.07;;;19.40;99.90;;;;;;5014217;28;20223;-80
2022/08/29 11:23:37;;;;;;;6.87;2.17;;;19.50;99.90;;;;;;5021128;28;20203;-80
2022/08/29 11:26:27;;;;;;;8.73;2.13;;;19.70;99.90;;;;;;5007064;28;20218;-81
2022/08/29 11:29:00;;;;;;;4.07;2.00;;;20.20;99.90;;;;;;4996190;28;20228;-80
2022/08/29 11:31:57;;;;;;;4.17;2.00;;;20.60;99.90;;;;;;5016250;28;20346;-80
2022/08/29 11:34:30;;;;;;;5.63;1.90;;;20.60;99.90;;;;;;5014543;28;20223;-81
2022/08/29 11:37:33;;;;;;;1.77;1.50;;;20.50;99.90;;;;;;5014016;28;20309;-79
2022/08/29 11:40:05;;;;;;;5.27;2.13;;;20.60;99.90;;;;;;5011835;28;20680;-81
2022/08/29 11:42:37;;;;;;;6.50;2.27;;;20.60;99.90;;;;;;5015334;28;20246;-81
2022/08/29 11:45:06;;;;;;;8.20;1.90;;;20.60;99.90;;;;;;5015073;28;20215;-81
2022/08/29 11:47:44;;;;;;;7.13;1.93;;;20.60;99.90;;;;;;5015152;28;20245;-82
2022/08/29 11:50:15;;;;;;;5.27;2.00;;;20.80;99.90;;;;;;5010604;28;20231;-84
2022/08/29 11:52:55;;;;;;;4.23;2.03;;;20.80;99.90;;;;;;4986236;28;20235;-81
2022/08/29 11:55:36;;;;;;;8.03;2.37;;;20.90;99.90;;;;;;5003776;28;20220;-79
2022/08/29 11:58:14;;;;;;;5.60;1.73;;;21.00;99.90;;;;;;4983812;28;20221;-82
2022/08/29 12:00:51;;;;;;;10.30;2.30;;;20.90;99.90;;;;;;4992927;28;20215;-81
2022/08/29 12:03:32;;;;;;;9.50;1.60;;;20.60;99.90;;;;;;5002595;28;20230;-81
2022/08/29 12:06:00;;;;;;;8.63;2.20;;;20.60;99.90;;;;;;5006273;28;20218;-78
2022/08/29 12:08:38;;;;;;;8.77;2.13;;;20.70;99.90;;;;;;5004639;28;20232;-79
2022/08/29 12:11:05;;;;;;;2.43;1.70;;;20.80;99.90;;;;;;5010203;28;20187;-81
2022/08/29 12:13:46;;;;;;;4.37;1.87;;;20.80;99.90;;;;;;5000335;28;20218;-81
2022/08/29 12:16:15;;;;;;;4.47;1.63;;;21.00;99.90;;;;;;4982228;28;20757;-81
2022/08/29 12:18:49;;;;;;;5.00;2.50;;;21.00;99.90;;;;;;5001536;28;20243;-81
2022/08/29 12:21:36;;;;;;;3.37;1.63;;;21.10;99.90;;;;;;5010229;28;20223;-79
2022/08/29 12:24:25;;;;;;;8.20;2.00;;;21.30;99.90;;;;;;5013033;28;20246;-79
2022/08/29 12:26:51;;;;;;;3.77;1.93;;;21.60;99.90;;;;;;4997147;28;20247;-80
2022/08/29 12:29:29;;;;;;;2.67;2.00;;;22.00;99.90;;;;;;5029309;28;20253;-78
2022/08/29 12:31:58;;;;;;;6.40;1.50;;;21.80;99.90;;;;;;5022899;28;20314;-79
2022/08/29 12:34:35;;;;;;;4.10;1.73;;;21.50;99.90;;;;;;5001755;28;20247;-81
2022/08/29 12:37:50;;;;;;;3.60;1.70;;;21.10;99.90;;;;;;5014572;28;20218;-80
2022/08/29 12:40:22;;;;;;;7.80;2.23;;;20.70;99.90;;;;;;4997067;28;20318;-80
2022/08/29 12:43:10;;;;;;;6.10;1.70;;;20.90;99.90;;;;;;5001547;28;20223;-80
2022/08/29 12:45:41;;;;;;;9.10;2.30;;;21.00;99.90;;;;;;5014078;28;20211;-79
2022/08/29 12:48:14;;;;;;;4.13;2.27;;;20.90;99.90;;;;;;5013847;28;20215;-80
2022/08/29 12:50:44;;;;;;;7.43;1.77;;;21.00;99.90;;;;;;5003757;28;20228;-79
2022/08/29 12:53:22;;;;;;;7.60;1.77;;;20.90;99.90;;;;;;5011033;28;20258;-79
2022/08/29 12:56:19;;;;;;;2.50;1.67;;;20.80;99.90;;;;;;5006847;28;20227;-80
2022/08/29 12:58:51;;;;;;;3.67;2.10;;;20.70;99.90;;;;;;5004585;28;20266;-80
2022/08/29 13:01:37;;;;;;;5.50;1.83;;;20.80;99.90;;;;;;5013628;28;20222;-81
2022/08/29 13:04:17;;;;;;;9.53;2.90;;;21.00;99.90;;;;;;5013685;28;20223;-81
2022/08/29 13:07:15;;;;;;;9.93;2.23;;;21.00;99.90;;;;;;5004069;28;20272;-80